メインページ
METAR-TAF:

METAR-TAF

空港 :

鳥取空港

鳥取, 日本

緯度: 35-32N, 経度: 134-10E, 海抜: 15m

現時点の気象観測

当レポートは21分前の22:00(UTC)に作成
南東の風 8kt
気温 12°C
湿度 82%
気圧 1018 hPa
視程10km以上
高度2500ftの雲はほとんどない
高度5000ftの雲は散在している
高度8000ftの千切れ雲あり

METAR: RJOR 162200Z 14008KT 9999 FEW025 SCT050 BKN080 12/09 Q1018

時間: 07:21 (22:21 UTC)


TAF: 見つかりません

4,000以上の空港の気象観測と天気予報(METAR報とTAF報)

利用可能な観測所は地図上に黄色い丸と赤い丸で示す。

丸の上にカーソルを重ねると観測所名を参照できる。

次にクリックすると気象観測と天気予報を参照できる。

マップの切り替え:黒色「×」印の緑ボタンをクリックして拡大、「-」印の緑ボタンをクリックして縮小、緑色の三角印をクリックして隣りの地図に切り替え


METAR-TAF: